Time;durP1;ratioP1;P1;durP2;ratioP2;P2;SDS_P1;SDS_P2;PMS_P1;PMS_P2;Temp;Humidity;BMP_temperature;BMP_pressure;BME280_temperature;BME280_humidity;BME280_pressure;Samples;Min_cycle;Max_cycle;Signal;HPM_P1;HPM_P2
2024/01/18 00:00:55;;;;;;;0.80;0.80;;;;;8.30;93245.00;;;;5056502;28;20204;-61
2024/01/18 00:03:22;;;;;;;0.73;0.73;;;;;8.30;93245.00;;;;5056240;28;20212;-61
2024/01/18 00:05:50;;;;;;;0.60;0.60;;;;;8.20;93246.00;;;;5055453;28;20223;-61
2024/01/18 00:08:17;;;;;;;0.50;0.50;;;;;8.20;93252.00;;;;5055730;28;20196;-60
2024/01/18 00:10:45;;;;;;;0.60;0.60;;;;;8.30;93249.00;;;;5055477;28;20214;-61
2024/01/18 00:13:12;;;;;;;0.80;0.80;;;;;8.20;93244.00;;;;5054321;28;20220;-61
2024/01/18 00:15:40;;;;;;;0.50;0.50;;;;;8.30;93246.00;;;;5054866;28;20548;-61
2024/01/18 00:18:10;;;;;;;0.53;0.53;;;;;8.10;93247.00;;;;5055106;28;20200;-60
2024/01/18 00:20:38;;;;;;;0.67;0.67;;;;;8.00;93248.00;;;;5054876;28;20224;-61
2024/01/18 00:23:05;;;;;;;0.60;0.60;;;;;8.10;93253.00;;;;5054892;28;20216;-61
2024/01/18 00:25:32;;;;;;;0.80;0.80;;;;;8.10;93257.00;;;;5054709;28;20223;-61
2024/01/18 00:28:00;;;;;;;0.97;0.97;;;;;7.90;93251.00;;;;5054668;28;20191;-61
2024/01/18 00:30:27;;;;;;;0.80;0.80;;;;;8.00;93261.00;;;;5055007;28;20195;-60
2024/01/18 00:32:55;;;;;;;0.63;0.63;;;;;8.00;93254.00;;;;5054490;28;20223;-61
2024/01/18 00:35:23;;;;;;;0.50;0.50;;;;;8.00;93272.00;;;;5054456;28;20668;-61
2024/01/18 00:37:51;;;;;;;0.70;0.70;;;;;8.00;93261.00;;;;5054462;28;20197;-61
2024/01/18 00:40:18;;;;;;;0.60;0.60;;;;;7.90;93271.00;;;;5054583;28;20188;-61
2024/01/18 00:42:46;;;;;;;0.60;0.60;;;;;7.80;93274.00;;;;5054206;28;20227;-61
2024/01/18 00:45:13;;;;;;;0.60;0.60;;;;;7.80;93276.00;;;;5054207;28;20690;-61
2024/01/18 00:47:41;;;;;;;0.67;0.67;;;;;7.80;93279.00;;;;5054957;28;20596;-61
2024/01/18 00:50:09;;;;;;;0.67;0.67;;;;;7.90;93275.00;;;;5054247;28;20262;-61
2024/01/18 00:52:37;;;;;;;0.50;0.50;;;;;7.90;93278.00;;;;5054127;28;20286;-61
2024/01/18 00:55:06;;;;;;;0.70;0.70;;;;;7.90;93284.00;;;;5054567;28;20200;-61
2024/01/18 00:57:34;;;;;;;0.80;0.80;;;;;7.90;93282.00;;;;5054247;28;20188;-61
2024/01/18 01:00:02;;;;;;;0.70;0.70;;;;;7.90;93268.00;;;;5054349;28;20216;-60
2024/01/18 01:02:29;;;;;;;0.50;0.50;;;;;7.90;93278.00;;;;5054625;28;20212;-61
2024/01/18 01:04:57;;;;;;;0.60;0.60;;;;;7.90;93272.00;;;;5053880;28;20238;-61
2024/01/18 01:07:24;;;;;;;0.57;0.57;;;;;7.90;93269.00;;;;5054070;28;20192;-61
2024/01/18 01:09:53;;;;;;;0.60;0.60;;;;;7.90;93267.00;;;;5052945;28;20200;-61
2024/01/18 01:12:20;;;;;;;0.50;0.50;;;;;7.80;93273.00;;;;5052614;28;20217;-60
2024/01/18 01:14:48;;;;;;;0.70;0.70;;;;;7.80;93271.00;;;;5054400;28;20192;-61
2024/01/18 01:17:15;;;;;;;0.60;0.60;;;;;7.90;93273.00;;;;5054040;28;20564;-61
2024/01/18 01:19:43;;;;;;;0.60;0.60;;;;;7.80;93268.00;;;;5053993;28;20192;-61
2024/01/18 01:22:10;;;;;;;0.60;0.60;;;;;7.70;93264.00;;;;5054122;28;20571;-61
2024/01/18 01:24:38;;;;;;;0.50;0.50;;;;;7.60;93260.00;;;;5052952;28;20522;-59
2024/01/18 01:27:08;;;;;;;0.60;0.60;;;;;7.70;93267.00;;;;5053904;28;20220;-61
2024/01/18 01:29:36;;;;;;;0.50;0.50;;;;;7.90;93266.00;;;;5053669;28;20509;-60
2024/01/18 01:32:03;;;;;;;0.60;0.60;;;;;7.90;93268.00;;;;5053548;28;20718;-61
2024/01/18 01:34:31;;;;;;;0.60;0.60;;;;;7.80;93279.00;;;;5054095;28;20199;-60
2024/01/18 01:36:58;;;;;;;0.70;0.70;;;;;7.80;93277.00;;;;5053965;28;20188;-60
2024/01/18 01:39:26;;;;;;;0.60;0.60;;;;;7.90;93280.00;;;;5054070;28;20192;-61
2024/01/18 01:41:53;;;;;;;0.63;0.63;;;;;7.80;93254.00;;;;5053689;28;20230;-62
2024/01/18 01:44:22;;;;;;;0.60;0.60;;;;;7.80;93272.00;;;;5054076;28;20195;-60
2024/01/18 01:46:49;;;;;;;0.60;0.60;;;;;7.70;93265.00;;;;5053622;28;20216;-61
2024/01/18 01:49:17;;;;;;;0.67;0.67;;;;;7.70;93271.00;;;;5053752;28;20192;-60
2024/01/18 01:51:48;;;;;;;0.50;0.50;;;;;7.70;93268.00;;;;5054345;28;20223;-61
2024/01/18 01:54:17;;;;;;;0.60;0.60;;;;;7.70;93269.00;;;;5054615;28;20206;-61
2024/01/18 01:56:48;;;;;;;0.60;0.60;;;;;7.70;93265.00;;;;5053902;28;20279;-61
2024/01/18 01:59:17;;;;;;;2.10;1.30;;;;;7.70;93259.00;;;;5054110;28;20200;-60
2024/01/18 02:01:46;;;;;;;1.00;1.00;;;;;7.60;93257.00;;;;5053718;28;20241;-61
2024/01/18 02:04:14;;;;;;;0.60;0.60;;;;;7.70;93257.00;;;;5054031;28;20192;-61
2024/01/18 02:06:42;;;;;;;0.70;0.70;;;;;7.80;93257.00;;;;5053941;28;20212;-61
2024/01/18 02:09:12;;;;;;;0.60;0.60;;;;;7.80;93268.00;;;;5054414;28;20222;-61
2024/01/18 02:11:39;;;;;;;0.60;0.60;;;;;7.80;93270.00;;;;5054315;28;20231;-61
2024/01/18 02:14:07;;;;;;;0.57;0.57;;;;;7.90;93264.00;;;;5053771;28;20204;-61
2024/01/18 02:16:35;;;;;;;0.60;0.60;;;;;8.00;93267.00;;;;5053701;28;20200;-60
2024/01/18 02:19:04;;;;;;;0.53;0.53;;;;;7.90;93259.00;;;;5053652;28;20201;-60
2024/01/18 02:21:31;;;;;;;0.70;0.70;;;;;8.00;93266.00;;;;5053239;28;20637;-59
2024/01/18 02:24:07;;;;;;;0.70;0.70;;;;;8.00;93264.00;;;;5053328;28;20192;-61
2024/01/18 02:26:35;;;;;;;0.53;0.53;;;;;7.90;93269.00;;;;5054047;28;20207;-60
2024/01/18 02:29:03;;;;;;;0.70;0.70;;;;;7.90;93270.00;;;;5053355;28;20652;-60
2024/01/18 02:31:30;;;;;;;0.53;0.53;;;;;7.90;93275.00;;;;5053347;28;20242;-60
2024/01/18 02:34:00;;;;;;;0.50;0.50;;;;;8.00;93263.00;;;;5052072;28;20199;-60
2024/01/18 02:36:27;;;;;;;0.50;0.50;;;;;7.90;93276.00;;;;5056975;28;20191;-60
2024/01/18 02:38:55;;;;;;;0.50;0.50;;;;;7.70;93272.00;;;;5057278;28;20199;-60
2024/01/18 02:41:23;;;;;;;0.60;0.60;;;;;7.70;93273.00;;;;5057176;28;20207;-61
2024/01/18 02:43:52;;;;;;;0.60;0.60;;;;;7.70;93272.00;;;;5056202;28;20206;-61
2024/01/18 02:46:20;;;;;;;0.50;0.50;;;;;7.60;93283.00;;;;5057586;28;20211;-60
2024/01/18 02:48:47;;;;;;;0.70;0.70;;;;;7.80;93294.00;;;;5057879;28;20532;-60
2024/01/18 02:51:15;;;;;;;0.57;0.57;;;;;7.70;93278.00;;;;5056176;28;20655;-60
2024/01/18 02:53:43;;;;;;;0.50;0.50;;;;;7.50;93285.00;;;;5057451;28;20216;-61
2024/01/18 02:56:10;;;;;;;0.60;0.60;;;;;7.60;93269.00;;;;5058209;28;20192;-61
2024/01/18 02:58:38;;;;;;;0.87;0.80;;;;;7.70;93280.00;;;;5057522;28;20196;-61
2024/01/18 03:01:07;;;;;;;0.60;0.60;;;;;7.80;93272.00;;;;5057521;28;20196;-60
2024/01/18 03:03:36;;;;;;;0.50;0.50;;;;;7.80;93269.00;;;;5057120;28;20215;-61
2024/01/18 03:06:04;;;;;;;0.50;0.50;;;;;7.90;93275.00;;;;5056666;28;20215;-61
2024/01/18 03:08:31;;;;;;;0.50;0.50;;;;;7.80;93269.00;;;;5057481;28;20196;-61
2024/01/18 03:10:59;;;;;;;0.70;0.70;;;;;7.70;93269.00;;;;5056867;28;20199;-61
2024/01/18 03:13:26;;;;;;;0.60;0.60;;;;;7.70;93273.00;;;;5057043;28;20222;-60
2024/01/18 03:15:53;;;;;;;0.60;0.60;;;;;7.90;93267.00;;;;5056839;28;20192;-60
2024/01/18 03:18:22;;;;;;;0.57;0.57;;;;;7.80;93268.00;;;;5057006;28;20669;-60
2024/01/18 03:20:50;;;;;;;0.60;0.60;;;;;7.80;93254.00;;;;5056917;28;20215;-61
2024/01/18 03:23:17;;;;;;;0.40;0.40;;;;;7.90;93260.00;;;;5055275;28;20220;-60
2024/01/18 03:25:45;;;;;;;0.60;0.60;;;;;7.90;93258.00;;;;5057010;28;20219;-60
2024/01/18 03:28:12;;;;;;;0.70;0.70;;;;;7.80;93256.00;;;;5056583;28;20203;-59
2024/01/18 03:30:40;;;;;;;0.60;0.60;;;;;7.70;93257.00;;;;5055984;28;20196;-60
2024/01/18 03:33:07;;;;;;;0.83;0.80;;;;;7.60;93246.00;;;;5056191;28;20598;-60
2024/01/18 03:35:36;;;;;;;0.60;0.60;;;;;7.50;93259.00;;;;5056512;28;20592;-61
2024/01/18 03:38:04;;;;;;;0.70;0.70;;;;;7.60;93252.00;;;;5056585;28;20306;-61
2024/01/18 03:40:31;;;;;;;0.77;0.77;;;;;7.70;93256.00;;;;5056523;28;20257;-60
2024/01/18 03:42:58;;;;;;;0.87;0.87;;;;;7.60;93256.00;;;;5056733;28;20262;-60
2024/01/18 03:45:27;;;;;;;0.50;0.50;;;;;7.70;93250.00;;;;5056094;28;20751;-60
2024/01/18 03:47:54;;;;;;;0.87;0.83;;;;;7.50;93252.00;;;;5055498;28;20216;-61
2024/01/18 03:50:21;;;;;;;0.63;0.63;;;;;7.40;93259.00;;;;5056155;28;20203;-61
2024/01/18 03:52:50;;;;;;;0.70;0.70;;;;;7.30;93243.00;;;;5056474;28;20235;-60
2024/01/18 03:55:18;;;;;;;1.00;0.93;;;;;7.30;93257.00;;;;5054967;28;20196;-60
2024/01/18 03:57:45;;;;;;;0.57;0.57;;;;;7.40;93245.00;;;;5054785;28;20542;-61
2024/01/18 04:00:13;;;;;;;0.80;0.80;;;;;7.60;93234.00;;;;5055992;28;20188;-61
2024/01/18 04:02:42;;;;;;;0.80;0.80;;;;;7.60;93232.00;;;;5056057;28;20270;-60
2024/01/18 04:05:10;;;;;;;0.60;0.60;;;;;7.70;93232.00;;;;5055363;28;20275;-61
2024/01/18 04:07:38;;;;;;;0.60;0.60;;;;;7.70;93241.00;;;;5056572;28;20223;-60
2024/01/18 04:10:09;;;;;;;0.60;0.60;;;;;7.70;93243.00;;;;5054312;28;20196;-59
2024/01/18 04:12:36;;;;;;;0.60;0.60;;;;;7.60;93246.00;;;;5056056;28;20216;-61
2024/01/18 04:15:05;;;;;;;0.80;0.80;;;;;7.60;93239.00;;;;5054895;28;20199;-60
2024/01/18 04:17:33;;;;;;;0.80;0.80;;;;;7.70;93241.00;;;;5055813;28;20238;-60
2024/01/18 04:20:05;;;;;;;0.63;0.63;;;;;7.70;93242.00;;;;5055557;28;20198;-61
2024/01/18 04:22:32;;;;;;;0.60;0.60;;;;;7.80;93242.00;;;;5056009;28;20235;-61
2024/01/18 04:25:00;;;;;;;0.70;0.70;;;;;7.90;93247.00;;;;5053875;28;20203;-61
2024/01/18 04:27:30;;;;;;;0.50;0.50;;;;;7.80;93240.00;;;;5055483;28;20575;-60
2024/01/18 04:29:58;;;;;;;0.50;0.50;;;;;7.70;93242.00;;;;5055074;28;20180;-60
2024/01/18 04:32:25;;;;;;;0.50;0.50;;;;;7.70;93233.00;;;;5054942;28;20212;-60
2024/01/18 04:34:53;;;;;;;0.67;0.67;;;;;7.70;93240.00;;;;5055122;28;20192;-61
2024/01/18 04:37:20;;;;;;;0.70;0.70;;;;;7.70;93246.00;;;;5055356;28;20232;-61
2024/01/18 04:39:47;;;;;;;0.50;0.50;;;;;7.70;93236.00;;;;5055193;28;20192;-60
2024/01/18 04:42:16;;;;;;;0.70;0.70;;;;;7.90;93240.00;;;;5055157;28;20224;-61
2024/01/18 04:44:45;;;;;;;0.50;0.50;;;;;7.90;93235.00;;;;5055094;28;20220;-61
2024/01/18 04:47:12;;;;;;;0.60;0.60;;;;;7.90;93232.00;;;;5054748;28;20745;-61
2024/01/18 04:49:40;;;;;;;0.60;0.60;;;;;7.80;93229.00;;;;5054961;28;20557;-61
2024/01/18 04:52:10;;;;;;;1.03;1.03;;;;;7.90;93232.00;;;;5055252;28;20570;-61
2024/01/18 04:54:37;;;;;;;0.60;0.60;;;;;8.00;93229.00;;;;5054777;28;20199;-61
2024/01/18 04:57:05;;;;;;;0.60;0.60;;;;;8.00;93232.00;;;;5055146;28;20663;-60
2024/01/18 04:59:33;;;;;;;0.50;0.50;;;;;8.00;93222.00;;;;5054685;28;20664;-61
2024/01/18 05:02:01;;;;;;;0.70;0.70;;;;;7.90;93233.00;;;;5054708;28;20219;-60
2024/01/18 05:04:29;;;;;;;1.00;0.90;;;;;7.90;93242.00;;;;5054935;28;20659;-61
2024/01/18 05:06:56;;;;;;;0.60;0.60;;;;;7.90;93239.00;;;;5054817;28;20307;-61
2024/01/18 05:09:24;;;;;;;0.50;0.50;;;;;7.90;93237.00;;;;5054711;28;20192;-61
2024/01/18 05:11:52;;;;;;;1.00;1.00;;;;;7.90;93235.00;;;;5054526;28;20220;-60
2024/01/18 05:14:19;;;;;;;0.80;0.80;;;;;7.80;93241.00;;;;5053427;28;20243;-61
2024/01/18 05:16:51;;;;;;;0.97;0.97;;;;;7.70;93230.00;;;;5054589;28;20266;-61
2024/01/18 05:19:20;;;;;;;0.70;0.70;;;;;7.70;93225.00;;;;5054690;28;20293;-61
2024/01/18 05:21:47;;;;;;;3.80;0.83;;;;;7.70;93221.00;;;;5054510;28;20703;-61
2024/01/18 05:24:14;;;;;;;0.60;0.60;;;;;7.60;93227.00;;;;5054178;28;20188;-61
2024/01/18 05:26:45;;;;;;;0.83;0.83;;;;;7.50;93225.00;;;;5053888;28;20691;-61
2024/01/18 05:29:13;;;;;;;0.60;0.60;;;;;7.50;93233.00;;;;5054415;28;20204;-60
2024/01/18 05:31:40;;;;;;;0.50;0.50;;;;;7.50;93232.00;;;;5053678;28;20200;-60
2024/01/18 05:34:08;;;;;;;0.60;0.60;;;;;7.50;93234.00;;;;5053634;28;20536;-60
2024/01/18 05:36:36;;;;;;;0.60;0.60;;;;;7.50;93235.00;;;;5053808;28;20188;-60
2024/01/18 05:39:04;;;;;;;0.63;0.63;;;;;7.50;93229.00;;;;5053641;28;20207;-60
2024/01/18 05:41:31;;;;;;;0.50;0.50;;;;;7.40;93239.00;;;;5053116;28;20250;-60
2024/01/18 05:43:59;;;;;;;0.70;0.70;;;;;7.30;93247.00;;;;5053565;28;20554;-61
2024/01/18 05:46:26;;;;;;;0.60;0.60;;;;;7.40;93242.00;;;;5053328;28;20192;-60
2024/01/18 05:48:54;;;;;;;0.67;0.67;;;;;7.30;93247.00;;;;5053322;28;20297;-61
2024/01/18 05:51:21;;;;;;;0.90;0.90;;;;;7.20;93236.00;;;;5053295;28;20548;-61
2024/01/18 05:53:50;;;;;;;1.03;1.03;;;;;7.20;93237.00;;;;5053506;28;20291;-61
2024/01/18 05:56:17;;;;;;;1.50;1.40;;;;;7.10;93242.00;;;;5053241;28;20191;-61
2024/01/18 05:58:44;;;;;;;1.10;1.10;;;;;6.90;93240.00;;;;5053614;28;20215;-61
2024/01/18 06:01:12;;;;;;;0.70;0.70;;;;;6.70;93249.00;;;;5054361;28;20191;-61
2024/01/18 06:03:39;;;;;;;0.60;0.60;;;;;6.50;93233.00;;;;5053573;28;20252;-61
2024/01/18 06:06:07;;;;;;;0.53;0.53;;;;;6.30;93242.00;;;;5053756;28;20204;-60
2024/01/18 06:08:35;;;;;;;0.50;0.50;;;;;6.10;93244.00;;;;5053675;28;20218;-61
2024/01/18 06:11:04;;;;;;;0.60;0.60;;;;;5.90;93242.00;;;;5053710;28;20192;-60
2024/01/18 06:13:31;;;;;;;0.70;0.70;;;;;5.80;93235.00;;;;5053597;28;20584;-61
2024/01/18 06:15:59;;;;;;;1.37;1.03;;;;;5.70;93242.00;;;;5053821;28;20199;-60
2024/01/18 06:18:26;;;;;;;0.60;0.60;;;;;5.50;93237.00;;;;5053919;28;20192;-60
2024/01/18 06:20:54;;;;;;;0.83;0.83;;;;;5.50;93242.00;;;;5053866;28;20206;-60
2024/01/18 06:23:21;;;;;;;0.80;0.80;;;;;5.20;93253.00;;;;5053794;28;20214;-60
2024/01/18 06:25:48;;;;;;;1.20;0.83;;;;;5.00;93253.00;;;;5054065;28;20195;-60
2024/01/18 06:28:17;;;;;;;0.90;0.90;;;;;4.80;93240.00;;;;5054618;28;20219;-61
2024/01/18 06:30:45;;;;;;;0.70;0.70;;;;;4.90;93253.00;;;;5053937;28;20199;-61
2024/01/18 06:33:12;;;;;;;0.50;0.50;;;;;4.80;93244.00;;;;5053571;28;20657;-61
2024/01/18 06:35:40;;;;;;;0.63;0.63;;;;;4.80;93245.00;;;;5053897;28;20196;-60
2024/01/18 06:38:07;;;;;;;0.80;0.80;;;;;4.70;93243.00;;;;5054282;28;20185;-60
2024/01/18 06:40:35;;;;;;;0.93;0.93;;;;;4.50;93240.00;;;;5053964;28;20644;-61
2024/01/18 06:43:03;;;;;;;0.80;0.80;;;;;4.30;93243.00;;;;5053604;28;20276;-61
2024/01/18 06:45:32;;;;;;;0.60;0.60;;;;;4.30;93238.00;;;;5053593;28;20195;-60
2024/01/18 06:47:59;;;;;;;1.13;1.13;;;;;4.30;93242.00;;;;5053665;28;20216;-60
2024/01/18 06:50:26;;;;;;;1.03;1.03;;;;;4.20;93240.00;;;;5053592;28;20193;-60
2024/01/18 06:52:54;;;;;;;0.93;0.93;;;;;4.20;93236.00;;;;5053588;28;20273;-61
2024/01/18 06:55:22;;;;;;;0.60;0.60;;;;;4.20;93243.00;;;;5053726;28;20200;-61
2024/01/18 06:57:50;;;;;;;1.20;1.10;;;;;4.20;93247.00;;;;5053513;28;20184;-61
2024/01/18 07:00:19;;;;;;;0.70;0.70;;;;;4.00;93242.00;;;;5053779;28;20197;-60
2024/01/18 07:02:48;;;;;;;0.60;0.60;;;;;3.90;93250.00;;;;5054105;28;20586;-61
2024/01/18 07:05:16;;;;;;;0.60;0.60;;;;;3.80;93240.00;;;;5053770;28;20532;-61
2024/01/18 07:07:43;;;;;;;0.80;0.80;;;;;3.80;93247.00;;;;5053899;28;20247;-61
2024/01/18 07:10:11;;;;;;;0.60;0.60;;;;;3.80;93237.00;;;;5053575;28;20280;-61
2024/01/18 07:12:38;;;;;;;0.80;0.80;;;;;3.70;93239.00;;;;5053498;28;20223;-61
2024/01/18 07:15:07;;;;;;;0.60;0.60;;;;;3.70;93227.00;;;;5053294;28;20223;-60
2024/01/18 07:17:35;;;;;;;0.63;0.63;;;;;3.70;93240.00;;;;5053354;28;20193;-61
2024/01/18 07:20:05;;;;;;;0.73;0.73;;;;;3.60;93242.00;;;;5053661;28;20283;-61
2024/01/18 07:22:32;;;;;;;0.50;0.50;;;;;3.70;93242.00;;;;5055697;28;20270;-61
2024/01/18 07:25:01;;;;;;;0.80;0.80;;;;;3.60;93242.00;;;;5057300;28;20192;-60
2024/01/18 07:27:29;;;;;;;0.80;0.80;;;;;3.60;93238.00;;;;5056981;28;20310;-60
2024/01/18 07:29:58;;;;;;;1.53;1.00;;;;;3.50;93238.00;;;;5057192;28;20226;-60
2024/01/18 07:32:26;;;;;;;1.00;1.00;;;;;3.40;93240.00;;;;5056546;28;20213;-60
2024/01/18 07:34:53;;;;;;;0.60;0.60;;;;;3.60;93251.00;;;;5056323;28;20203;-60
2024/01/18 07:37:23;;;;;;;0.63;0.63;;;;;3.40;93253.00;;;;5056503;28;20203;-60
2024/01/18 07:39:51;;;;;;;0.70;0.70;;;;;3.40;93261.00;;;;5056513;28;20188;-60
2024/01/18 07:42:19;;;;;;;0.70;0.70;;;;;3.30;93250.00;;;;5056679;28;20228;-60
2024/01/18 07:44:47;;;;;;;0.87;0.87;;;;;3.40;93245.00;;;;5056880;28;20533;-60
2024/01/18 07:47:16;;;;;;;0.70;0.70;;;;;3.40;93241.00;;;;5056338;28;20212;-60
2024/01/18 07:49:46;;;;;;;0.67;0.67;;;;;3.50;93249.00;;;;5056449;28;20275;-60
2024/01/18 07:52:13;;;;;;;0.60;0.60;;;;;3.50;93255.00;;;;5056633;28;20228;-60
2024/01/18 07:54:43;;;;;;;0.83;0.83;;;;;3.50;93242.00;;;;5056172;28;20189;-59
2024/01/18 07:57:12;;;;;;;1.00;1.00;;;;;3.50;93252.00;;;;5059513;28;20229;-59
2024/01/18 07:59:40;;;;;;;0.90;0.90;;;;;3.40;93236.00;;;;5051767;28;20200;-62
2024/01/18 08:02:07;;;;;;;0.83;0.83;;;;;3.30;93255.00;;;;5053756;28;20624;-62
2024/01/18 08:04:36;;;;;;;1.00;1.00;;;;;3.30;93257.00;;;;5053072;28;20615;-62
2024/01/18 08:07:03;;;;;;;0.60;0.60;;;;;3.20;93258.00;;;;5053350;28;20559;-61
2024/01/18 08:09:31;;;;;;;0.70;0.70;;;;;3.10;93253.00;;;;5048659;28;20200;-63
2024/01/18 08:12:00;;;;;;;0.90;0.90;;;;;3.20;93258.00;;;;5047213;28;20762;-60
2024/01/18 08:14:27;;;;;;;1.03;1.03;;;;;3.30;93260.00;;;;5050182;28;20196;-60
2024/01/18 08:16:55;;;;;;;0.60;0.60;;;;;3.10;93262.00;;;;5052513;28;20203;-60
2024/01/18 08:19:23;;;;;;;0.67;0.67;;;;;3.20;93270.00;;;;5052044;28;20196;-59
2024/01/18 08:21:50;;;;;;;0.60;0.60;;;;;3.20;93271.00;;;;5052629;28;20231;-59
2024/01/18 08:24:18;;;;;;;0.73;0.73;;;;;3.30;93289.00;;;;5048752;28;20204;-60
2024/01/18 08:26:45;;;;;;;0.93;0.93;;;;;3.30;93285.00;;;;5052718;28;20196;-59
2024/01/18 08:29:14;;;;;;;1.07;1.07;;;;;3.40;93296.00;;;;5052929;28;20699;-60
2024/01/18 08:31:42;;;;;;;1.03;1.00;;;;;3.20;93273.00;;;;5052131;28;20264;-60
2024/01/18 08:34:09;;;;;;;0.70;0.70;;;;;3.30;93292.00;;;;5052644;28;20204;-59
2024/01/18 08:36:37;;;;;;;0.80;0.80;;;;;3.20;93294.00;;;;5052358;28;20199;-60
2024/01/18 08:39:05;;;;;;;1.03;1.03;;;;;3.20;93285.00;;;;5053213;28;20211;-60
2024/01/18 08:41:32;;;;;;;0.80;0.80;;;;;3.20;93293.00;;;;5050790;28;20208;-61
2024/01/18 08:44:00;;;;;;;1.43;1.27;;;;;3.30;93319.00;;;;5052771;28;20192;-61
2024/01/18 08:46:30;;;;;;;1.30;1.27;;;;;3.20;93309.00;;;;5052515;28;20629;-60
2024/01/18 08:48:57;;;;;;;1.03;1.03;;;;;3.30;93317.00;;;;5052526;28;20216;-61
2024/01/18 08:51:25;;;;;;;0.63;0.63;;;;;3.40;93321.00;;;;5052683;28;20196;-61
2024/01/18 08:53:53;;;;;;;0.97;0.97;;;;;3.40;93322.00;;;;5052419;28;20192;-61
2024/01/18 08:56:21;;;;;;;0.70;0.70;;;;;3.40;93323.00;;;;5051688;28;20204;-61
2024/01/18 08:58:49;;;;;;;0.73;0.70;;;;;3.40;93330.00;;;;5052279;28;20211;-60
2024/01/18 09:01:17;;;;;;;0.60;0.60;;;;;3.30;93327.00;;;;5052411;28;20192;-61
2024/01/18 09:03:46;;;;;;;0.70;0.70;;;;;3.30;93330.00;;;;5052414;28;20234;-62
2024/01/18 09:06:14;;;;;;;0.60;0.60;;;;;3.20;93325.00;;;;5052061;28;20619;-62
2024/01/18 09:08:42;;;;;;;0.60;0.60;;;;;3.00;93334.00;;;;5052195;28;20231;-62
2024/01/18 09:11:10;;;;;;;0.73;0.73;;;;;3.00;93340.00;;;;5052023;28;20196;-60
2024/01/18 09:13:38;;;;;;;0.60;0.60;;;;;2.90;93354.00;;;;5051597;28;20553;-60
2024/01/18 09:16:07;;;;;;;0.70;0.70;;;;;2.90;93354.00;;;;5051702;28;20191;-59
2024/01/18 09:18:34;;;;;;;1.13;1.13;;;;;2.70;93364.00;;;;5051674;28;20196;-59
2024/01/18 09:21:05;;;;;;;1.27;1.27;;;;;2.80;93373.00;;;;5051788;28;20207;-59
2024/01/18 09:23:32;;;;;;;1.23;1.13;;;;;2.60;93376.00;;;;5051529;28;20224;-59
2024/01/18 09:26:00;;;;;;;0.70;0.70;;;;;2.70;93391.00;;;;5051668;28;20208;-59
2024/01/18 09:28:30;;;;;;;0.70;0.70;;;;;2.60;93388.00;;;;5051750;28;20218;-59
2024/01/18 09:30:57;;;;;;;1.00;1.00;;;;;2.50;93385.00;;;;5051527;28;20232;-59
2024/01/18 09:33:25;;;;;;;0.60;0.60;;;;;2.40;93389.00;;;;5051319;28;20560;-59
2024/01/18 09:35:54;;;;;;;0.70;0.70;;;;;2.40;93379.00;;;;5051309;28;20195;-59
2024/01/18 09:38:26;;;;;;;0.70;0.70;;;;;2.40;93393.00;;;;5051869;28;20203;-59
2024/01/18 09:41:02;;;;;;;0.80;0.80;;;;;2.30;93393.00;;;;5051948;28;20235;-59
2024/01/18 09:43:34;;;;;;;0.70;0.70;;;;;2.40;93399.00;;;;5051743;28;20227;-59
2024/01/18 09:46:07;;;;;;;0.70;0.70;;;;;2.40;93411.00;;;;5050842;28;20571;-59
2024/01/18 09:48:35;;;;;;;0.73;0.73;;;;;2.30;93427.00;;;;5051524;28;20281;-59
2024/01/18 09:51:04;;;;;;;0.60;0.60;;;;;2.30;93441.00;;;;5051159;28;20688;-59
2024/01/18 09:53:33;;;;;;;0.60;0.60;;;;;2.20;93476.00;;;;5051849;28;20215;-59
2024/01/18 09:56:04;;;;;;;0.60;0.60;;;;;2.00;93480.00;;;;5051755;28;20196;-59
2024/01/18 09:58:33;;;;;;;0.70;0.70;;;;;2.00;93481.00;;;;5051429;28;20196;-59
2024/01/18 10:01:04;;;;;;;0.70;0.70;;;;;1.90;93497.00;;;;5051705;28;20221;-59
2024/01/18 10:03:32;;;;;;;0.93;0.93;;;;;1.90;93506.00;;;;5051674;28;20229;-59
2024/01/18 10:06:00;;;;;;;0.80;0.80;;;;;1.90;93502.00;;;;5051416;28;20199;-60
2024/01/18 10:08:28;;;;;;;0.90;0.90;;;;;1.70;93503.00;;;;5051477;28;20227;-59
2024/01/18 10:10:57;;;;;;;0.67;0.67;;;;;1.50;93523.00;;;;5051505;28;20231;-58
2024/01/18 10:13:24;;;;;;;0.60;0.60;;;;;1.40;93508.00;;;;5050024;28;20222;-58
2024/01/18 10:15:51;;;;;;;0.90;0.90;;;;;1.50;93505.00;;;;5049788;28;20284;-58
2024/01/18 10:18:20;;;;;;;0.70;0.70;;;;;1.50;93527.00;;;;5051134;28;20198;-58
2024/01/18 10:20:48;;;;;;;0.87;0.87;;;;;1.50;93531.00;;;;5051234;28;20200;-58
2024/01/18 10:23:16;;;;;;;0.63;0.63;;;;;1.30;93546.00;;;;5050990;28;20223;-58
2024/01/18 10:25:45;;;;;;;2.30;0.80;;;;;0.90;93540.00;;;;5050406;28;20254;-58
2024/01/18 10:28:15;;;;;;;0.70;0.70;;;;;0.90;93555.00;;;;5051307;28;20229;-59
2024/01/18 10:30:42;;;;;;;0.60;0.60;;;;;0.80;93556.00;;;;5050749;28;20195;-58
2024/01/18 10:33:11;;;;;;;0.60;0.60;;;;;0.80;93555.00;;;;5051515;28;20229;-58
2024/01/18 10:35:39;;;;;;;0.60;0.60;;;;;1.00;93563.00;;;;5051707;28;20292;-58
2024/01/18 10:38:07;;;;;;;0.80;0.80;;;;;1.00;93571.00;;;;5045895;28;20225;-58
2024/01/18 10:40:37;;;;;;;0.60;0.60;;;;;1.10;93593.00;;;;5049230;28;20197;-58
2024/01/18 10:43:05;;;;;;;0.90;0.90;;;;;1.00;93574.00;;;;5046880;28;20215;-58
2024/01/18 10:45:34;;;;;;;0.70;0.70;;;;;1.10;93583.00;;;;5050948;28;20199;-58
2024/01/18 10:48:02;;;;;;;0.63;0.63;;;;;1.10;93581.00;;;;5050453;28;20568;-58
2024/01/18 10:50:31;;;;;;;0.70;0.70;;;;;1.00;93582.00;;;;5049400;28;20210;-58
2024/01/18 10:52:58;;;;;;;0.60;0.60;;;;;1.20;93597.00;;;;5051130;28;20221;-59
2024/01/18 10:55:26;;;;;;;0.67;0.67;;;;;1.20;93601.00;;;;5051047;28;20674;-58
2024/01/18 10:57:54;;;;;;;0.70;0.70;;;;;1.20;93611.00;;;;5056998;28;20222;-58
2024/01/18 11:00:21;;;;;;;0.60;0.60;;;;;1.10;93616.00;;;;5054462;28;20198;-58
2024/01/18 11:02:50;;;;;;;0.60;0.60;;;;;1.10;93610.00;;;;5054653;28;20225;-58
2024/01/18 11:05:21;;;;;;;0.60;0.60;;;;;1.10;93626.00;;;;5054464;28;20203;-58
2024/01/18 11:07:49;;;;;;;0.70;0.70;;;;;1.00;93621.00;;;;5054468;28;20264;-58
2024/01/18 11:10:16;;;;;;;0.77;0.77;;;;;1.00;93616.00;;;;5054066;28;20225;-58
2024/01/18 11:12:49;;;;;;;2.87;1.33;;;;;1.20;93631.00;;;;5053441;28;20586;-58
2024/01/18 11:15:17;;;;;;;0.90;0.90;;;;;1.30;93632.00;;;;5054164;28;20253;-60
2024/01/18 11:17:46;;;;;;;0.90;0.90;;;;;1.30;93634.00;;;;5053151;28;20207;-58
2024/01/18 11:20:15;;;;;;;0.60;0.60;;;;;1.40;93643.00;;;;5053473;28;20195;-58
2024/01/18 11:22:43;;;;;;;0.70;0.70;;;;;1.60;93648.00;;;;5053863;28;20211;-59
2024/01/18 11:25:13;;;;;;;0.60;0.60;;;;;1.50;93645.00;;;;5054052;28;20649;-58
2024/01/18 11:27:41;;;;;;;0.77;0.77;;;;;1.70;93650.00;;;;5054038;28;20207;-62
2024/01/18 11:30:12;;;;;;;0.90;0.90;;;;;1.70;93650.00;;;;5052860;28;20237;-58
2024/01/18 11:32:39;;;;;;;0.70;0.70;;;;;1.70;93664.00;;;;5053690;28;20223;-59
2024/01/18 11:35:11;;;;;;;0.60;0.60;;;;;1.80;93673.00;;;;5054528;28;20195;-58
2024/01/18 11:37:40;;;;;;;1.00;1.00;;;;;1.70;93679.00;;;;5053325;28;20201;-58
2024/01/18 11:40:12;;;;;;;0.70;0.70;;;;;1.70;93697.00;;;;5054045;28;20628;-58
2024/01/18 11:42:42;;;;;;;1.30;1.20;;;;;1.60;93699.00;;;;5053244;28;20253;-58
2024/01/18 11:45:17;;;;;;;0.73;0.73;;;;;1.70;93706.00;;;;5054361;28;20195;-58
2024/01/18 11:47:46;;;;;;;0.60;0.60;;;;;1.70;93707.00;;;;5054059;28;20671;-58
2024/01/18 11:50:14;;;;;;;0.90;0.90;;;;;1.70;93721.00;;;;5053867;28;20221;-58
2024/01/18 11:52:44;;;;;;;0.70;0.70;;;;;1.60;93726.00;;;;5053143;28;20234;-59
2024/01/18 11:55:14;;;;;;;0.80;0.80;;;;;1.30;93721.00;;;;5053963;28;20201;-59
2024/01/18 11:57:41;;;;;;;0.80;0.80;;;;;1.20;93730.00;;;;5053183;28;20207;-59
2024/01/18 12:00:10;;;;;;;0.70;0.70;;;;;1.10;93729.00;;;;5053620;28;20203;-59
2024/01/18 12:02:38;;;;;;;0.80;0.80;;;;;1.20;93731.00;;;;5053387;28;20231;-59
2024/01/18 12:05:07;;;;;;;0.60;0.60;;;;;1.30;93738.00;;;;5053602;28;20206;-59
2024/01/18 12:07:35;;;;;;;0.83;0.83;;;;;1.20;93749.00;;;;5052385;28;20195;-59
2024/01/18 12:10:07;;;;;;;0.70;0.70;;;;;1.20;93759.00;;;;5053217;28;20245;-59
2024/01/18 12:12:35;;;;;;;0.60;0.60;;;;;1.30;93762.00;;;;5053581;28;20767;-59
2024/01/18 12:15:03;;;;;;;0.97;0.97;;;;;1.40;93779.00;;;;5053841;28;20208;-58
2024/01/18 12:17:31;;;;;;;0.60;0.60;;;;;1.10;93781.00;;;;5053789;28;20736;-60
2024/01/18 12:20:01;;;;;;;0.80;0.80;;;;;0.90;93782.00;;;;5053257;28;20285;-59
2024/01/18 12:22:29;;;;;;;0.97;0.97;;;;;0.90;93775.00;;;;5048529;28;20287;-59
2024/01/18 12:24:56;;;;;;;1.43;1.33;;;;;0.90;93806.00;;;;5052934;28;20209;-60
2024/01/18 12:27:25;;;;;;;1.10;1.10;;;;;0.70;93806.00;;;;5051497;28;20200;-59
2024/01/18 12:29:53;;;;;;;0.73;0.73;;;;;0.70;93818.00;;;;5051697;28;20209;-59
2024/01/18 12:32:21;;;;;;;1.00;1.00;;;;;0.80;93831.00;;;;5052620;28;20218;-59